FACT/CPT METAR and TAF weather

Enter ICAO airport designator
Station Type Date Time Source
FACT METAR 2019/10/16 20:00 UTC NOAA

FACT 162000Z 21014KT CAVOK 17/16 Q1014 NOSIG


Station Type Date Time Source
FACT Decoded METAR 2019/10/16 20:00 UTC NOAA

Cape Town, Cape Town International Airport, South Africa (FACT) 33-59S 018-36E 0M
Oct 16, 2019 - 04:00 PM EDT / 2019.10.16 2000 UTC
Wind: from the SSW (210 degrees) at 16 MPH (14 KT):0
Visibility: greater than 7 mile(s):0
Temperature: 62 F (17 C)
Dew Point: 60 F (16 C)
Relative Humidity: 93%
Pressure (altimeter): 29.94 in. Hg (1014 hPa)
ob: FACT 162000Z 21014KT CAVOK 17/16 Q1014 NOSIG
cycle: 20

Station Type Date Time Source
FACT TAF 2019/10/16 18:17 UTC NOAA

TAF FACT 161600Z 1618/1724 19015KT CAVOK TX24/1712Z TN15/1704Z
FM162000 19015KT 9999 SCT020 PROB30
TEMPO 1703/1706 BKN008
FM170800 17017KT 9999 FEW030

Example: see airport list